createdAt,value
2022-11-17T00:00:46.523Z,6.42
2022-11-17T00:05:45.324Z,6.22
2022-11-17T00:10:44.157Z,6.32
2022-11-17T00:15:44.635Z,6.20
2022-11-17T00:21:01.825Z,6.12
2022-11-17T00:26:00.726Z,6.30
2022-11-17T00:31:17.997Z,6.15
2022-11-17T00:36:16.879Z,5.94
2022-11-17T00:41:15.590Z,5.91
2022-11-17T00:46:14.468Z,6.03
2022-11-17T00:51:13.236Z,5.90
2022-11-17T00:56:12.352Z,5.72
2022-11-17T01:01:11.851Z,5.75
2022-11-17T01:06:19.728Z,5.86
2022-11-17T01:11:19.814Z,5.92
2022-11-17T01:16:19.913Z,5.85
2022-11-17T01:21:21.701Z,5.66
2022-11-17T01:26:23.265Z,5.81
2022-11-17T01:31:28.788Z,5.60
2022-11-17T01:36:56.231Z,5.50
2022-11-17T01:41:55.851Z,5.55
2022-11-17T01:47:00.674Z,5.59
2022-11-17T01:52:04.362Z,5.71
2022-11-17T01:57:06.505Z,5.44
2022-11-17T02:02:05.528Z,5.29
2022-11-17T02:07:29.713Z,5.29
2022-11-17T02:12:30.925Z,5.32
2022-11-17T02:17:37.046Z,5.45
2022-11-17T02:23:04.028Z,5.29
2022-11-17T02:28:08.926Z,5.46
2022-11-17T02:33:28.809Z,5.43
2022-11-17T02:38:38.330Z,5.32
2022-11-17T02:44:03.802Z,4.99
2022-11-17T02:49:08.850Z,5.20
2022-11-17T02:54:08.407Z,4.93
2022-11-17T02:59:07.392Z,5.08
2022-11-17T03:04:41.863Z,5.28
2022-11-17T03:09:40.534Z,5.11
2022-11-17T03:14:55.466Z,5.12
2022-11-17T03:20:14.683Z,5.15
2022-11-17T03:25:17.922Z,4.89
2022-11-17T03:30:18.234Z,5.02
2022-11-17T03:35:27.908Z,5.16
2022-11-17T03:40:28.353Z,5.16
2022-11-17T03:45:34.288Z,5.30
2022-11-17T03:50:45.877Z,5.27
2022-11-17T03:56:29.512Z,5.22
2022-11-17T04:01:31.280Z,5.04
2022-11-17T04:06:30.214Z,5.25
2022-11-17T04:11:47.466Z,5.28
2022-11-17T04:16:46.348Z,5.25
2022-11-17T04:21:45.270Z,4.91
2022-11-17T04:27:02.634Z,5.17
2022-11-17T04:32:01.543Z,5.11
2022-11-17T04:37:05.319Z,5.20
2022-11-17T04:42:05.948Z,5.25
2022-11-17T04:47:06.193Z,5.18
2022-11-17T04:52:05.033Z,5.25
2022-11-17T04:57:03.918Z,5.11
2022-11-17T05:02:06.193Z,5.30
2022-11-17T05:07:06.107Z,5.22
2022-11-17T05:12:23.460Z,5.26
2022-11-17T05:17:22.328Z,5.38
2022-11-17T05:22:43.390Z,5.20
2022-11-17T05:27:42.286Z,5.18
2022-11-17T05:32:41.136Z,5.24
2022-11-17T05:37:40.050Z,5.15
2022-11-17T05:42:38.953Z,5.25
2022-11-17T05:47:38.930Z,5.44
2022-11-17T05:52:37.821Z,5.33
2022-11-17T05:57:36.931Z,5.28
2022-11-17T06:02:44.536Z,5.06
2022-11-17T06:07:43.797Z,5.20
2022-11-17T06:12:42.835Z,4.99
2022-11-17T06:17:48.330Z,4.90
2022-11-17T06:22:48.813Z,5.21
2022-11-17T06:27:50.662Z,5.14
2022-11-17T06:32:50.564Z,5.17
2022-11-17T06:37:49.327Z,5.13
2022-11-17T06:43:06.703Z,4.78
2022-11-17T06:48:07.708Z,5.12
2022-11-17T06:53:08.693Z,5.00
2022-11-17T06:58:11.701Z,5.14
2022-11-17T07:03:10.884Z,5.19
2022-11-17T07:08:09.890Z,5.34
2022-11-17T07:13:08.942Z,5.36
2022-11-17T07:18:08.133Z,5.21
2022-11-17T07:23:07.051Z,5.09
2022-11-17T07:28:07.017Z,5.31
2022-11-17T07:33:06.195Z,5.41
2022-11-17T07:38:05.279Z,5.46
2022-11-17T07:43:04.370Z,8.77
2022-11-17T07:48:06.785Z,8.79
2022-11-17T07:53:05.724Z,9.01
2022-11-17T07:58:04.750Z,9.53
2022-11-17T08:03:04.811Z,9.84
2022-11-17T08:08:04.035Z,7.70
2022-11-17T08:13:02.896Z,6.67
2022-11-17T08:18:01.927Z,6.20
2022-11-17T08:23:00.789Z,5.89
2022-11-17T08:27:59.598Z,6.03
2022-11-17T08:32:58.432Z,6.15
2022-11-17T08:37:57.244Z,6.07
2022-11-17T08:43:00.728Z,6.15
2022-11-17T08:48:00.302Z,6.08
2022-11-17T08:52:59.775Z,6.40
2022-11-17T08:57:58.654Z,6.39
2022-11-17T09:02:57.475Z,6.21
2022-11-17T09:08:02.466Z,6.22
2022-11-17T09:13:18.629Z,6.48
2022-11-17T09:18:17.755Z,6.54
2022-11-17T09:23:16.727Z,6.60
2022-11-17T09:28:15.575Z,6.36
2022-11-17T09:33:14.360Z,6.47
2022-11-17T09:38:13.517Z,6.65
2022-11-17T09:43:26.476Z,6.37
2022-11-17T09:48:41.417Z,6.45
2022-11-17T09:53:51.006Z,6.58
2022-11-17T09:58:50.013Z,6.69
2022-11-17T10:03:51.143Z,6.64
2022-11-17T10:09:05.785Z,6.65
2022-11-17T10:14:18.350Z,6.79
2022-11-17T10:19:20.112Z,6.53
2022-11-17T10:24:37.204Z,6.73
2022-11-17T10:29:36.046Z,6.65
2022-11-17T10:34:41.014Z,6.72
2022-11-17T10:39:43.315Z,6.78
2022-11-17T10:44:44.385Z,7.04
2022-11-17T10:49:43.309Z,7.02
2022-11-17T10:54:42.315Z,6.88
2022-11-17T10:59:59.658Z,6.69
2022-11-17T11:05:13.935Z,6.75
2022-11-17T11:10:18.667Z,6.99
2022-11-17T11:15:22.771Z,6.91
2022-11-17T11:20:33.713Z,7.09
2022-11-17T11:25:49.265Z,7.11
2022-11-17T11:31:06.235Z,7.20
2022-11-17T11:36:08.127Z,6.74
2022-11-17T11:41:35.663Z,6.85
2022-11-17T11:47:08.634Z,7.07
2022-11-17T11:52:19.364Z,7.02
2022-11-17T11:57:25.105Z,7.29
2022-11-17T12:02:47.256Z,7.21
2022-11-17T12:08:15.837Z,7.18
2022-11-17T12:13:17.342Z,7.00
2022-11-17T12:18:19.438Z,7.30
2022-11-17T12:23:18.318Z,6.99
2022-11-17T12:28:40.227Z,6.99
2022-11-17T12:33:54.350Z,6.58
2022-11-17T12:38:55.095Z,6.65
2022-11-17T12:44:32.004Z,6.67
2022-11-17T12:49:44.618Z,6.57
2022-11-17T12:55:01.297Z,6.55
2022-11-17T13:00:22.901Z,6.45
2022-11-17T13:05:27.651Z,6.62
2022-11-17T13:10:31.617Z,6.25
2022-11-17T13:15:30.482Z,6.41
2022-11-17T13:20:30.712Z,6.37
2022-11-17T13:32:21.313Z,6.46
2022-11-17T13:37:25.506Z,6.35
2022-11-17T13:42:27.039Z,6.40
2022-11-17T13:47:41.281Z,6.24
2022-11-17T13:52:46.518Z,6.50
2022-11-17T13:58:24.540Z,6.24
2022-11-17T14:03:45.593Z,6.34
2022-11-17T14:09:02.867Z,6.40
2022-11-17T14:14:01.852Z,6.39
2022-11-17T14:19:04.146Z,6.42
2022-11-17T14:24:07.237Z,6.41
2022-11-17T14:29:06.854Z,6.56
2022-11-17T14:34:05.618Z,6.21
2022-11-17T14:39:15.741Z,6.50
2022-11-17T14:44:15.059Z,6.13
2022-11-17T14:49:14.052Z,6.25
2022-11-17T14:54:13.171Z,6.37
2022-11-17T14:59:12.415Z,6.12
2022-11-17T15:09:36.847Z,6.16
2022-11-17T15:14:35.668Z,6.07
2022-11-17T15:19:34.497Z,6.18
2022-11-17T15:24:33.306Z,6.12
2022-11-17T15:29:32.083Z,6.11
2022-11-17T15:34:30.923Z,5.96
2022-11-17T15:39:30.708Z,5.92
2022-11-17T15:44:29.526Z,6.14
2022-11-17T15:49:28.337Z,5.93
2022-11-17T15:54:27.379Z,5.93
2022-11-17T15:59:26.683Z,6.03
2022-11-17T16:04:25.504Z,5.98
2022-11-17T16:09:24.375Z,5.92
2022-11-17T16:14:23.166Z,5.87
2022-11-17T16:19:22.044Z,5.86
2022-11-17T16:24:20.783Z,5.96
2022-11-17T16:29:19.570Z,6.02
2022-11-17T16:34:19.165Z,5.89
2022-11-17T16:39:18.220Z,5.97
2022-11-17T16:44:18.599Z,5.96
2022-11-17T16:49:19.198Z,5.75
2022-11-17T16:54:19.269Z,5.92
2022-11-17T16:59:18.496Z,5.80
2022-11-17T17:04:17.696Z,5.96
2022-11-17T17:09:17.965Z,5.78
2022-11-17T17:14:18.425Z,5.86
2022-11-17T17:19:17.449Z,5.88
2022-11-17T17:24:16.537Z,5.68
2022-11-17T17:29:15.703Z,5.92
2022-11-17T17:34:14.766Z,5.78
2022-11-17T17:39:18.428Z,5.78
2022-11-17T17:44:19.415Z,5.77
2022-11-17T17:49:19.348Z,5.69
2022-11-17T17:54:20.852Z,5.84
2022-11-17T17:59:20.503Z,5.88
2022-11-17T18:04:19.428Z,5.90
2022-11-17T18:09:21.272Z,5.99
2022-11-17T18:14:24.284Z,5.91
2022-11-17T18:19:28.221Z,5.74
2022-11-17T18:24:28.880Z,5.95
2022-11-17T18:29:27.905Z,5.96
2022-11-17T18:34:26.900Z,6.01
2022-11-17T18:39:27.446Z,5.77
2022-11-17T18:44:26.477Z,5.52
2022-11-17T18:49:25.259Z,5.60
2022-11-17T18:54:24.081Z,5.51
2022-11-17T18:59:22.984Z,5.51
2022-11-17T19:04:21.835Z,5.40
2022-11-17T19:09:20.681Z,5.39
2022-11-17T19:14:19.477Z,5.23
2022-11-17T19:19:19.121Z,5.17
2022-11-17T19:24:18.399Z,5.33
2022-11-17T19:29:17.882Z,5.52
2022-11-17T19:34:16.916Z,5.24
2022-11-17T19:39:17.029Z,5.58
2022-11-17T19:44:16.190Z,5.61
2022-11-17T19:49:15.423Z,5.70
2022-11-17T19:54:14.621Z,5.48
2022-11-17T19:59:16.395Z,5.38
2022-11-17T20:04:15.827Z,5.48
2022-11-17T20:09:15.417Z,5.56
2022-11-17T20:14:14.941Z,5.63
2022-11-17T20:19:14.210Z,5.60
2022-11-17T20:24:13.211Z,5.64
2022-11-17T20:29:12.105Z,5.85
2022-11-17T20:34:12.525Z,5.82
2022-11-17T20:39:11.450Z,5.93
2022-11-17T20:44:24.043Z,5.80
2022-11-17T20:49:24.187Z,5.76
2022-11-17T20:54:22.945Z,5.68
2022-11-17T20:59:22.298Z,5.71
2022-11-17T21:04:21.249Z,5.68
2022-11-17T21:09:20.466Z,5.77
2022-11-17T21:14:19.393Z,5.92
2022-11-17T21:19:18.780Z,5.74
2022-11-17T21:24:17.975Z,5.72
2022-11-17T21:29:16.840Z,5.81
2022-11-17T21:34:16.844Z,5.93
2022-11-17T21:39:18.509Z,5.82
2022-11-17T21:44:17.711Z,5.98
2022-11-17T21:49:16.646Z,5.94
2022-11-17T21:54:15.689Z,5.82
2022-11-17T21:59:16.504Z,5.86
2022-11-17T22:04:15.787Z,5.75
2022-11-17T22:09:14.959Z,5.99
2022-11-17T22:14:16.301Z,5.84
2022-11-17T22:19:17.149Z,5.78
2022-11-17T22:24:16.734Z,5.99
2022-11-17T22:29:21.139Z,5.92
2022-11-17T22:34:20.589Z,5.72
2022-11-17T22:39:19.836Z,5.91
2022-11-17T22:44:19.204Z,6.14
2022-11-17T22:49:18.299Z,5.92
2022-11-17T22:54:17.391Z,6.16
2022-11-17T22:59:16.995Z,6.17
2022-11-17T23:04:16.590Z,6.17
2022-11-17T23:09:15.926Z,6.16
2022-11-17T23:14:15.024Z,6.11
2022-11-17T23:19:14.355Z,5.99
2022-11-17T23:24:14.920Z,5.86
2022-11-17T23:29:14.431Z,5.81
2022-11-17T23:34:13.614Z,6.09
2022-11-17T23:39:12.427Z,5.96
2022-11-17T23:44:11.317Z,6.28
2022-11-17T23:49:10.051Z,6.30
2022-11-17T23:54:12.324Z,6.11
2022-11-17T23:59:11.166Z,6.35
